Time;durP1;ratioP1;P1;durP2;ratioP2;P2;SDS_P1;SDS_P2;PMS_P1;PMS_P2;Temp;Humidity;BMP_temperature;BMP_pressure;BME280_temperature;BME280_humidity;BME280_pressure;Samples;Min_cycle;Max_cycle;Signal;HPM_P1;HPM_P2
2023/05/08 00:00:39;;;;;;;3.72;2.88;;;15.50;36.70;;;;;;5054410;28;20021;-72
2023/05/08 00:03:05;;;;;;;6.10;2.70;;;15.50;36.70;;;;;;5053391;28;20352;-72
2023/05/08 00:05:30;;;;;;;4.82;2.85;;;15.50;36.70;;;;;;5054356;28;20107;-72
2023/05/08 00:08:00;;;;;;;4.10;2.78;;;15.50;36.80;;;;;;5054120;28;20506;-72
2023/05/08 00:10:29;;;;;;;3.53;2.60;;;15.50;36.80;;;;;;5054881;28;20020;-72
2023/05/08 00:12:55;;;;;;;3.13;2.55;;;15.50;36.80;;;;;;5052782;28;20085;-72
2023/05/08 00:15:22;;;;;;;3.47;2.60;;;15.50;36.80;;;;;;5053973;28;20033;-72
2023/05/08 00:17:47;;;;;;;3.35;2.67;;;15.50;36.80;;;;;;5052859;28;20029;-72
2023/05/08 00:20:13;;;;;;;3.50;2.20;;;15.50;36.90;;;;;;5053835;28;20032;-72
2023/05/08 00:22:39;;;;;;;2.63;2.25;;;15.50;36.90;;;;;;5054058;28;20356;-72
2023/05/08 00:25:05;;;;;;;2.47;2.20;;;15.50;36.90;;;;;;5052516;28;20029;-72
2023/05/08 00:27:31;;;;;;;2.65;2.40;;;15.50;36.80;;;;;;5052757;28;20032;-72
2023/05/08 00:29:57;;;;;;;2.92;2.63;;;15.50;36.80;;;;;;5054024;28;20384;-72
2023/05/08 00:32:23;;;;;;;3.17;2.10;;;15.60;36.80;;;;;;5053736;28;20036;-72
2023/05/08 00:34:49;;;;;;;3.88;2.30;;;15.60;36.80;;;;;;5053955;28;20470;-72
2023/05/08 00:37:15;;;;;;;2.38;2.03;;;15.60;36.80;;;;;;5053888;28;20035;-73
2023/05/08 00:39:41;;;;;;;2.42;2.17;;;15.60;36.80;;;;;;5052676;28;20028;-73
2023/05/08 00:42:06;;;;;;;2.97;2.03;;;15.60;36.90;;;;;;5052447;28;20116;-72
2023/05/08 00:44:32;;;;;;;2.33;1.92;;;15.50;36.80;;;;;;5053708;28;20634;-72
2023/05/08 00:46:58;;;;;;;3.13;2.03;;;15.60;36.80;;;;;;5053012;28;20032;-72
2023/05/08 00:49:24;;;;;;;3.03;2.00;;;15.60;36.80;;;;;;5053171;28;20549;-72
2023/05/08 00:51:53;;;;;;;2.00;1.80;;;15.60;36.70;;;;;;5053475;28;20029;-71
2023/05/08 00:54:19;;;;;;;1.77;1.67;;;15.60;36.70;;;;;;5052512;28;20064;-71
2023/05/08 00:56:45;;;;;;;1.70;1.60;;;15.60;36.70;;;;;;5052317;28;20032;-72
2023/05/08 00:59:14;;;;;;;2.17;1.77;;;15.60;36.70;;;;;;5052198;28;20028;-72
2023/05/08 01:01:42;;;;;;;3.15;1.80;;;15.60;36.80;;;;;;5052695;28;20090;-72
2023/05/08 01:04:08;;;;;;;3.25;1.90;;;15.60;36.80;;;;;;5052070;28;20025;-72
2023/05/08 01:06:35;;;;;;;3.17;1.58;;;15.60;36.90;;;;;;5052584;28;20028;-72
2023/05/08 01:09:02;;;;;;;1.80;1.70;;;15.50;36.90;;;;;;5053726;28;20532;-72
2023/05/08 01:11:46;;;;;;;1.65;1.55;;;15.40;36.90;;;;;;5052079;28;20037;-72
2023/05/08 01:14:46;;;;;;;3.17;2.17;;;15.50;37.10;;;;;;5053377;28;20033;-72
2023/05/08 01:17:46;;;;;;;2.88;1.83;;;15.40;37.30;;;;;;5053414;28;20132;-72
2023/05/08 01:20:38;;;;;;;1.95;1.77;;;15.40;37.50;;;;;;5049941;28;20087;-72
2023/05/08 01:23:19;;;;;;;2.10;1.90;;;15.40;37.20;;;;;;5053349;28;20033;-72
2023/05/08 01:26:32;;;;;;;3.83;1.98;;;15.30;37.20;;;;;;5053411;28;20024;-72
2023/05/08 01:29:22;;;;;;;2.75;1.90;;;15.30;37.50;;;;;;5054084;28;20144;-72
2023/05/08 01:32:19;;;;;;;2.17;1.92;;;15.30;37.30;;;;;;5057125;28;20064;-73
2023/05/08 01:34:59;;;;;;;3.03;1.92;;;15.20;37.40;;;;;;5057256;28;20027;-72
2023/05/08 01:37:43;;;;;;;2.28;1.88;;;15.20;37.40;;;;;;5057033;28;20376;-72
2023/05/08 01:40:40;;;;;;;2.15;1.95;;;15.20;37.40;;;;;;5057244;28;20081;-72
2023/05/08 01:43:17;;;;;;;2.30;1.88;;;15.20;38.10;;;;;;5057033;28;20037;-72
2023/05/08 01:45:49;;;;;;;2.05;1.85;;;15.20;37.60;;;;;;5056944;28;20456;-72
2023/05/08 01:48:23;;;;;;;2.10;1.90;;;15.10;37.50;;;;;;5056051;28;20429;-72
2023/05/08 01:50:55;;;;;;;2.38;1.83;;;15.10;37.50;;;;;;5056088;28;20410;-72
2023/05/08 01:53:29;;;;;;;3.05;1.60;;;15.10;37.50;;;;;;5055657;28;20124;-72
2023/05/08 01:56:02;;;;;;;3.10;2.07;;;15.10;37.50;;;;;;5055602;28;20047;-73
2023/05/08 01:58:30;;;;;;;1.85;1.75;;;15.10;37.60;;;;;;5055358;28;20029;-72
2023/05/08 02:00:58;;;;;;;5.03;1.95;;;15.10;37.70;;;;;;5057019;28;20043;-73
2023/05/08 02:03:25;;;;;;;1.95;1.75;;;15.10;37.60;;;;;;5056657;28;20448;-72
2023/05/08 02:05:53;;;;;;;2.10;1.90;;;15.10;37.70;;;;;;5055353;28;20441;-72
2023/05/08 02:08:21;;;;;;;1.98;1.85;;;15.10;37.70;;;;;;5056814;28;20055;-72
2023/05/08 02:10:49;;;;;;;2.35;1.85;;;15.10;37.70;;;;;;5055258;28;20036;-72
2023/05/08 02:13:18;;;;;;;2.28;2.08;;;15.10;37.70;;;;;;5056631;28;20033;-72
2023/05/08 02:15:48;;;;;;;1.98;1.77;;;15.10;37.70;;;;;;5055344;28;20431;-72
2023/05/08 02:18:15;;;;;;;1.90;1.80;;;15.10;37.70;;;;;;5056568;28;20032;-72
2023/05/08 02:20:41;;;;;;;3.58;2.00;;;15.10;37.70;;;;;;5056550;28;20083;-72
2023/05/08 02:23:08;;;;;;;2.10;1.90;;;15.10;37.80;;;;;;5056260;28;20033;-72
2023/05/08 02:25:35;;;;;;;1.92;1.80;;;15.10;37.80;;;;;;5056729;28;20029;-72
2023/05/08 02:28:02;;;;;;;2.13;1.90;;;15.10;37.80;;;;;;5055135;28;20032;-72
2023/05/08 02:30:28;;;;;;;3.05;1.88;;;15.10;37.80;;;;;;5054922;28;20060;-72
2023/05/08 02:32:55;;;;;;;2.40;1.88;;;15.10;37.90;;;;;;5056059;28;20036;-72
2023/05/08 02:35:23;;;;;;;2.38;2.17;;;15.10;38.00;;;;;;5056059;28;20033;-72
2023/05/08 02:37:52;;;;;;;2.80;2.38;;;15.00;38.10;;;;;;5054528;28;20029;-72
2023/05/08 02:40:21;;;;;;;2.42;2.22;;;15.00;38.00;;;;;;5054674;28;20021;-72
2023/05/08 02:42:47;;;;;;;2.83;2.35;;;15.00;38.10;;;;;;5054761;28;20083;-72
2023/05/08 02:45:13;;;;;;;2.60;2.40;;;15.00;38.10;;;;;;5055911;28;20056;-72
2023/05/08 02:47:58;;;;;;;2.13;1.92;;;15.00;38.20;;;;;;5055830;28;20051;-72
2023/05/08 02:50:37;;;;;;;3.83;2.42;;;15.00;38.20;;;;;;5055774;28;20026;-72
2023/05/08 02:53:08;;;;;;;2.40;2.10;;;15.00;38.20;;;;;;5055882;28;20410;-72
2023/05/08 02:55:41;;;;;;;2.20;2.00;;;15.00;38.20;;;;;;5054468;28;20502;-72
2023/05/08 02:58:16;;;;;;;2.20;2.00;;;15.00;38.20;;;;;;5054576;28;20033;-72
2023/05/08 03:01:22;;;;;;;1.80;1.70;;;15.10;38.30;;;;;;5055496;28;20028;-72
2023/05/08 03:03:57;;;;;;;2.30;2.10;;;15.10;38.40;;;;;;5054647;28;20566;-72
2023/05/08 03:06:24;;;;;;;;;;;15.10;38.20;;;;;;5056310;28;20036;-72
2023/05/08 03:08:51;;;;;;;1.98;1.88;;;15.10;38.80;;;;;;5055254;28;19911;-72
2023/05/08 03:11:23;;;;;;;2.47;2.17;;;15.10;38.10;;;;;;5053951;28;20430;-72
2023/05/08 03:13:52;;;;;;;2.22;2.03;;;15.20;38.10;;;;;;5054148;28;20391;-72
2023/05/08 03:16:21;;;;;;;2.30;2.10;;;15.20;38.20;;;;;;5044522;28;20022;-72
2023/05/08 03:18:55;;;;;;;2.17;1.98;;;15.20;38.20;;;;;;5034241;28;20087;-72
2023/05/08 03:21:24;;;;;;;3.70;2.30;;;15.20;38.30;;;;;;5044687;28;20032;-72
2023/05/08 03:23:52;;;;;;;2.05;1.90;;;15.20;38.20;;;;;;5055070;28;20108;-72
2023/05/08 03:26:21;;;;;;;2.03;1.83;;;15.20;38.20;;;;;;5053314;28;20047;-72
2023/05/08 03:28:51;;;;;;;2.15;1.73;;;15.20;38.20;;;;;;5051876;28;20060;-72
2023/05/08 03:31:19;;;;;;;2.35;1.80;;;15.20;38.10;;;;;;5044236;28;20029;-72
2023/05/08 03:33:46;;;;;;;3.47;1.60;;;15.20;38.10;;;;;;5043321;28;20021;-72
2023/05/08 03:36:13;;;;;;;2.10;1.90;;;15.30;38.10;;;;;;5042559;28;20041;-74
2023/05/08 03:38:39;;;;;;;1.73;1.63;;;15.30;38.10;;;;;;5044003;28;20074;-72
2023/05/08 03:41:05;;;;;;;2.00;1.80;;;15.30;38.20;;;;;;5044247;28;20041;-72
2023/05/08 03:43:32;;;;;;;2.85;2.22;;;15.30;38.20;;;;;;5042240;28;20107;-72
2023/05/08 03:45:58;;;;;;;3.42;1.92;;;15.30;38.20;;;;;;5043559;28;20417;-72
2023/05/08 03:48:26;;;;;;;2.78;2.10;;;15.30;38.20;;;;;;5035111;28;20029;-72
2023/05/08 03:50:52;;;;;;;2.25;1.73;;;15.30;38.10;;;;;;5033079;28;20021;-72
2023/05/08 03:53:18;;;;;;;2.00;1.70;;;15.40;38.10;;;;;;5034934;28;20384;-72
2023/05/08 03:55:44;;;;;;;1.98;1.77;;;15.40;38.10;;;;;;5042380;28;20017;-72
2023/05/08 03:58:23;;;;;;;1.60;1.50;;;15.40;38.00;;;;;;5043213;28;20031;-72
2023/05/08 04:01:24;;;;;;;2.00;1.67;;;15.40;38.00;;;;;;5043060;28;20426;-72
2023/05/08 04:04:13;;;;;;;4.05;1.90;;;15.40;37.90;;;;;;5043473;28;20482;-72
2023/05/08 04:07:04;;;;;;;1.67;1.50;;;15.50;37.90;;;;;;5041907;28;20037;-72
2023/05/08 04:09:36;;;;;;;1.65;1.55;;;15.60;37.90;;;;;;5034909;28;20356;-72
2023/05/08 04:12:12;;;;;;;2.50;2.20;;;15.60;37.80;;;;;;5033318;28;20026;-72
2023/05/08 04:14:52;;;;;;;2.55;2.30;;;15.70;37.70;;;;;;5037216;28;20074;-72
2023/05/08 04:17:35;;;;;;;2.42;2.17;;;15.70;37.70;;;;;;5034814;28;20067;-72
2023/05/08 04:20:03;;;;;;;1.92;1.83;;;15.80;37.70;;;;;;5034310;28;20025;-72
2023/05/08 04:22:31;;;;;;;3.05;2.00;;;15.80;37.50;;;;;;5033131;28;20556;-75
2023/05/08 04:25:00;;;;;;;3.97;2.10;;;15.80;37.50;;;;;;5034493;28;20034;-70
2023/05/08 04:27:26;;;;;;;2.20;2.00;;;15.90;37.50;;;;;;5034070;28;20099;-70
2023/05/08 04:29:53;;;;;;;2.88;1.98;;;15.90;37.90;;;;;;5034820;28;20471;-76
2023/05/08 04:32:19;;;;;;;1.98;1.70;;;15.90;38.00;;;;;;5043534;28;20163;-72
2023/05/08 04:34:45;;;;;;;1.70;1.60;;;15.90;37.90;;;;;;5052885;28;20472;-72
2023/05/08 04:37:26;;;;;;;1.77;1.67;;;16.00;37.80;;;;;;5052915;28;20021;-73
2023/05/08 04:39:52;;;;;;;2.28;1.70;;;16.00;37.70;;;;;;5053287;28;20028;-73
2023/05/08 04:42:18;;;;;;;2.42;1.55;;;16.00;37.60;;;;;;5053154;28;20032;-71
2023/05/08 04:44:44;;;;;;;1.70;1.60;;;15.90;37.60;;;;;;5047698;28;20433;-72
2023/05/08 04:47:09;;;;;;;1.58;1.48;;;15.90;37.60;;;;;;5041357;28;20021;-73
2023/05/08 04:49:35;;;;;;;1.60;1.50;;;15.90;37.60;;;;;;5042064;28;20017;-71
2023/05/08 04:52:01;;;;;;;1.52;1.42;;;16.00;37.60;;;;;;5043275;28;20022;-73
2023/05/08 04:54:26;;;;;;;2.17;1.98;;;16.00;37.50;;;;;;5041098;28;20100;-72
2023/05/08 04:56:52;;;;;;;2.22;2.03;;;16.00;37.50;;;;;;5033791;28;20108;-71
2023/05/08 04:59:18;;;;;;;2.55;2.00;;;16.00;37.40;;;;;;5040030;28;20024;-76
2023/05/08 05:01:45;;;;;;;3.55;2.20;;;16.00;37.40;;;;;;5042091;28;20096;-71
2023/05/08 05:04:11;;;;;;;3.75;2.05;;;16.00;37.40;;;;;;5032314;28;20068;-74
2023/05/08 05:06:37;;;;;;;2.20;1.90;;;16.00;37.40;;;;;;5032498;28;20072;-75
2023/05/08 05:09:03;;;;;;;2.45;1.83;;;16.00;37.40;;;;;;5031730;28;20471;-74
2023/05/08 05:11:29;;;;;;;2.17;1.98;;;15.90;37.30;;;;;;5030621;28;20036;-74
2023/05/08 05:13:55;;;;;;;2.78;1.70;;;15.90;37.40;;;;;;5032508;28;20472;-74
2023/05/08 05:16:20;;;;;;;1.90;1.70;;;15.90;37.40;;;;;;5031863;28;20190;-77
2023/05/08 05:18:46;;;;;;;1.60;1.50;;;15.90;37.40;;;;;;5049631;28;20424;-75
2023/05/08 05:21:12;;;;;;;1.77;1.65;;;16.00;37.40;;;;;;5052532;28;20033;-77
2023/05/08 05:23:38;;;;;;;1.88;1.75;;;16.00;37.40;;;;;;5050818;28;20483;-76
2023/05/08 05:26:03;;;;;;;1.80;1.70;;;16.00;37.40;;;;;;5048820;28;20032;-75
2023/05/08 05:28:29;;;;;;;1.75;1.55;;;16.00;37.30;;;;;;5052778;28;20025;-75
2023/05/08 05:30:55;;;;;;;2.22;1.70;;;16.00;37.30;;;;;;5050904;28;20528;-76
2023/05/08 05:33:21;;;;;;;1.63;1.52;;;16.00;37.20;;;;;;5052275;28;20108;-75
2023/05/08 05:35:46;;;;;;;2.00;1.52;;;16.00;37.30;;;;;;5051954;28;20052;-76
2023/05/08 05:38:12;;;;;;;2.10;1.52;;;16.10;37.30;;;;;;5052725;28;20435;-75
2023/05/08 05:40:37;;;;;;;2.40;1.50;;;16.10;37.30;;;;;;5052447;28;20044;-75
2023/05/08 05:43:03;;;;;;;2.78;1.58;;;16.20;37.30;;;;;;5052553;28;20429;-73
2023/05/08 05:45:29;;;;;;;2.00;1.80;;;16.20;37.20;;;;;;5050280;28;20074;-75
2023/05/08 05:47:54;;;;;;;2.33;1.58;;;16.20;37.10;;;;;;5052199;28;20082;-71
2023/05/08 05:50:21;;;;;;;1.63;1.52;;;16.30;37.10;;;;;;5050914;28;20075;-72
2023/05/08 05:52:47;;;;;;;1.65;1.55;;;16.30;37.10;;;;;;5052461;28;20032;-71
2023/05/08 05:55:13;;;;;;;1.98;1.75;;;16.40;37.00;;;;;;5051912;28;20029;-76
2023/05/08 05:57:38;;;;;;;1.90;1.75;;;16.40;37.00;;;;;;5051914;28;20021;-74
2023/05/08 06:00:05;;;;;;;1.40;1.30;;;16.40;36.90;;;;;;5051807;28;20527;-72
2023/05/08 06:02:32;;;;;;;3.45;1.90;;;16.40;36.90;;;;;;5051961;28;20032;-73
2023/05/08 06:04:59;;;;;;;1.65;1.55;;;16.30;36.90;;;;;;5052142;28;20018;-72
2023/05/08 06:07:24;;;;;;;1.73;1.63;;;16.30;37.00;;;;;;5050792;28;20375;-70
2023/05/08 06:09:52;;;;;;;1.70;1.60;;;16.30;37.00;;;;;;5052947;28;20025;-72
2023/05/08 06:12:18;;;;;;;1.50;1.40;;;16.20;37.00;;;;;;5051902;28;20383;-72
2023/05/08 06:14:44;;;;;;;3.70;1.70;;;16.20;37.10;;;;;;5054737;28;20025;-72
2023/05/08 06:17:09;;;;;;;2.55;1.50;;;16.10;37.00;;;;;;5056354;28;20025;-72
2023/05/08 06:19:35;;;;;;;1.73;1.60;;;16.10;37.00;;;;;;5056630;28;20154;-72
2023/05/08 06:22:01;;;;;;;1.77;1.67;;;16.20;37.00;;;;;;5056588;28;20114;-71
2023/05/08 06:24:27;;;;;;;1.70;1.60;;;16.20;37.00;;;;;;5056571;28;20025;-71
2023/05/08 06:26:53;;;;;;;2.08;1.80;;;16.20;37.00;;;;;;5056247;28;20032;-73
2023/05/08 06:29:18;;;;;;;1.60;1.50;;;16.20;37.00;;;;;;5056258;28;20049;-72
2023/05/08 06:31:44;;;;;;;1.50;1.40;;;16.20;36.90;;;;;;5056248;28;20040;-72
2023/05/08 06:34:10;;;;;;;1.65;1.42;;;16.30;36.90;;;;;;5055013;28;20110;-72
2023/05/08 06:36:36;;;;;;;2.35;1.40;;;16.30;36.80;;;;;;5056325;28;20025;-72
2023/05/08 06:39:05;;;;;;;2.63;1.70;;;16.30;36.70;;;;;;5056139;28;20106;-72
2023/05/08 06:41:31;;;;;;;2.95;1.50;;;16.30;36.60;;;;;;5056099;28;20036;-72
2023/05/08 06:43:56;;;;;;;1.88;1.77;;;16.30;36.70;;;;;;5055865;28;20025;-72
2023/05/08 06:46:22;;;;;;;2.97;1.70;;;16.30;36.80;;;;;;5056387;28;20050;-71
2023/05/08 06:48:48;;;;;;;1.50;1.40;;;16.30;36.80;;;;;;5055817;28;20089;-72
2023/05/08 06:51:13;;;;;;;2.75;1.70;;;16.30;36.80;;;;;;5054799;28;20057;-72
2023/05/08 06:53:39;;;;;;;2.17;1.80;;;16.30;36.70;;;;;;5055656;28;20036;-72
2023/05/08 06:56:05;;;;;;;1.40;1.30;;;16.30;36.80;;;;;;5055779;28;20033;-72
2023/05/08 06:58:31;;;;;;;1.70;1.60;;;16.30;36.70;;;;;;5056158;28;20029;-72
2023/05/08 07:01:02;;;;;;;2.83;1.58;;;16.40;36.70;;;;;;5055723;28;20029;-72
2023/05/08 07:03:28;;;;;;;2.97;1.65;;;16.40;36.70;;;;;;5055896;28;20163;-72
2023/05/08 07:05:54;;;;;;;2.13;1.60;;;16.40;36.70;;;;;;5055725;28;20500;-72
2023/05/08 07:08:20;;;;;;;1.88;1.67;;;16.50;36.60;;;;;;5055631;28;20111;-72
2023/05/08 07:10:45;;;;;;;1.50;1.40;;;16.50;36.70;;;;;;5055689;28;20114;-71
2023/05/08 07:13:11;;;;;;;1.40;1.30;;;16.40;36.60;;;;;;5055550;28;20036;-72
2023/05/08 07:15:37;;;;;;;1.65;1.55;;;16.50;36.60;;;;;;5055590;28;20041;-71
2023/05/08 07:18:03;;;;;;;1.40;1.30;;;16.60;36.50;;;;;;5054334;28;20025;-72
2023/05/08 07:20:29;;;;;;;1.40;1.30;;;16.60;36.30;;;;;;5055577;28;20025;-71
2023/05/08 07:22:55;;;;;;;2.50;1.60;;;16.60;36.30;;;;;;5055336;28;20032;-73
2023/05/08 07:25:20;;;;;;;2.50;1.65;;;16.60;36.30;;;;;;5053065;28;20037;-73
2023/05/08 07:27:46;;;;;;;1.60;1.50;;;16.60;36.20;;;;;;5055290;28;20053;-72
2023/05/08 07:30:12;;;;;;;1.73;1.40;;;16.60;36.20;;;;;;5055274;28;20053;-73
2023/05/08 07:32:38;;;;;;;1.50;1.40;;;16.50;36.20;;;;;;5055164;28;20040;-76
2023/05/08 07:35:06;;;;;;;1.45;1.35;;;16.60;36.30;;;;;;5055028;28;20036;-72
2023/05/08 07:37:32;;;;;;;2.42;1.48;;;16.60;36.30;;;;;;5055192;28;20112;-72
2023/05/08 07:39:58;;;;;;;2.47;1.48;;;16.60;36.30;;;;;;5054759;28;20549;-73
2023/05/08 07:42:23;;;;;;;1.85;1.70;;;16.60;36.30;;;;;;5055260;28;20112;-71
2023/05/08 07:44:49;;;;;;;1.80;1.70;;;16.70;36.30;;;;;;5054916;28;20111;-72
2023/05/08 07:47:14;;;;;;;1.73;1.52;;;16.70;36.20;;;;;;5054975;28;20141;-71
2023/05/08 07:49:40;;;;;;;1.52;1.42;;;16.70;36.10;;;;;;5055017;28;20025;-71
2023/05/08 07:52:06;;;;;;;3.65;1.30;;;16.80;36.20;;;;;;5054685;28;20074;-72
2023/05/08 07:54:32;;;;;;;1.48;1.38;;;16.80;36.00;;;;;;5054323;28;20033;-72
2023/05/08 07:56:57;;;;;;;1.67;1.45;;;16.90;36.00;;;;;;5054825;28;20067;-72
2023/05/08 07:59:23;;;;;;;1.67;1.42;;;16.90;35.90;;;;;;5055066;28;20029;-72
2023/05/08 08:01:49;;;;;;;1.30;1.25;;;16.90;35.80;;;;;;5054534;28;20028;-72
2023/05/08 08:04:15;;;;;;;3.13;1.38;;;17.00;35.90;;;;;;5054971;28;20041;-72
2023/05/08 08:06:40;;;;;;;1.63;1.52;;;17.00;35.80;;;;;;5054326;28;20025;-72
2023/05/08 08:09:06;;;;;;;1.40;1.27;;;17.00;35.70;;;;;;5054281;28;20025;-72
2023/05/08 08:11:32;;;;;;;3.00;1.60;;;16.90;35.70;;;;;;5054713;28;20025;-73
2023/05/08 08:13:58;;;;;;;1.25;1.20;;;16.90;35.80;;;;;;5054301;28;20031;-73
2023/05/08 08:16:24;;;;;;;1.55;1.42;;;16.90;35.70;;;;;;5054448;28;20021;-72
2023/05/08 08:18:51;;;;;;;1.60;1.50;;;16.90;35.80;;;;;;5054334;28;20040;-72
2023/05/08 08:21:17;;;;;;;1.60;1.48;;;16.80;35.60;;;;;;5054373;28;20056;-72
2023/05/08 08:23:43;;;;;;;2.20;1.30;;;16.80;35.60;;;;;;5053908;28;20021;-72
2023/05/08 08:26:09;;;;;;;1.40;1.30;;;16.80;35.60;;;;;;5054223;28;20032;-72
2023/05/08 08:28:34;;;;;;;2.65;1.45;;;16.80;35.60;;;;;;5054121;28;20056;-72
2023/05/08 08:31:00;;;;;;;2.03;1.75;;;16.80;35.60;;;;;;5054039;28;20111;-73
2023/05/08 08:33:28;;;;;;;2.40;1.60;;;16.80;35.60;;;;;;5053943;28;20033;-71
2023/05/08 08:35:54;;;;;;;4.13;1.48;;;16.70;35.30;;;;;;5052704;28;20166;-72
2023/05/08 08:38:20;;;;;;;1.88;1.25;;;16.70;35.30;;;;;;5052196;28;20493;-72
2023/05/08 08:40:46;;;;;;;1.58;1.48;;;16.70;35.40;;;;;;5053880;28;20114;-72
2023/05/08 08:43:12;;;;;;;1.67;1.33;;;16.70;35.50;;;;;;5052717;28;20063;-73
2023/05/08 08:45:37;;;;;;;1.67;1.55;;;16.70;35.40;;;;;;5053888;28;20029;-72
2023/05/08 08:48:06;;;;;;;3.33;1.60;;;16.70;35.30;;;;;;5053662;28;20025;-72
2023/05/08 08:50:33;;;;;;;3.03;1.27;;;16.70;35.30;;;;;;5053758;28;20348;-71
2023/05/08 08:53:32;;;;;;;1.63;1.52;;;16.70;35.80;;;;;;5052364;28;20028;-72
2023/05/08 08:56:00;;;;;;;5.10;1.67;;;16.70;34.90;;;;;;5053777;28;20048;-71
2023/05/08 08:58:33;;;;;;;1.60;1.50;;;16.70;35.00;;;;;;5052510;28;20032;-73
2023/05/08 09:01:02;;;;;;;5.15;1.50;;;16.70;35.10;;;;;;5052230;28;20029;-72
2023/05/08 09:03:30;;;;;;;4.15;1.60;;;16.70;35.00;;;;;;5053647;28;20056;-72
2023/05/08 09:06:00;;;;;;;2.92;1.90;;;16.70;35.00;;;;;;5052553;28;20032;-71
2023/05/08 09:08:26;;;;;;;2.30;1.83;;;16.70;35.00;;;;;;5052819;28;20471;-71
2023/05/08 09:10:54;;;;;;;2.53;1.50;;;16.70;34.90;;;;;;5052978;28;20032;-71
2023/05/08 09:13:20;;;;;;;2.40;1.50;;;16.70;34.90;;;;;;5053316;28;20032;-71
2023/05/08 09:15:47;;;;;;;1.23;1.20;;;16.70;34.90;;;;;;5052176;28;20029;-71
2023/05/08 09:18:13;;;;;;;1.55;1.45;;;16.70;34.80;;;;;;5052273;28;20025;-71
2023/05/08 09:20:40;;;;;;;1.50;1.40;;;16.80;34.80;;;;;;5052516;28;20021;-73
2023/05/08 09:23:06;;;;;;;1.98;1.80;;;16.80;34.70;;;;;;5052527;28;20029;-71
2023/05/08 09:25:47;;;;;;;2.78;1.50;;;16.80;34.70;;;;;;5053346;28;20032;-72
2023/05/08 09:28:17;;;;;;;3.10;1.52;;;16.90;34.70;;;;;;5053367;28;20123;-72
2023/05/08 09:30:52;;;;;;;1.55;1.42;;;16.90;34.80;;;;;;5053539;28;20045;-74
2023/05/08 09:33:19;;;;;;;1.90;1.50;;;16.90;34.80;;;;;;5051810;28;20061;-73
2023/05/08 09:35:47;;;;;;;1.50;1.40;;;16.90;34.70;;;;;;5053183;28;20037;-72
2023/05/08 09:38:42;;;;;;;1.77;1.30;;;16.90;34.60;;;;;;5051754;28;20033;-73
2023/05/08 09:41:10;;;;;;;1.40;1.30;;;17.00;34.50;;;;;;5048426;28;20360;-71
2023/05/08 09:43:37;;;;;;;2.00;1.40;;;17.00;34.60;;;;;;5053669;28;20029;-71
2023/05/08 09:46:22;;;;;;;2.22;1.48;;;17.00;34.60;;;;;;5053058;28;20040;-72
2023/05/08 09:48:53;;;;;;;1.45;1.35;;;17.00;34.40;;;;;;5054353;28;20028;-71
2023/05/08 09:51:20;;;;;;;1.48;1.33;;;17.10;34.60;;;;;;5056928;28;20021;-73
2023/05/08 09:53:45;;;;;;;1.65;1.30;;;17.10;34.50;;;;;;5055628;28;20514;-73
2023/05/08 09:56:11;;;;;;;1.40;1.10;;;17.20;34.60;;;;;;5057170;28;20037;-73
2023/05/08 09:58:42;;;;;;;1.15;1.08;;;17.10;34.60;;;;;;5055940;28;20040;-72
2023/05/08 10:01:25;;;;;;;1.50;1.33;;;17.20;34.60;;;;;;5056808;28;20040;-72
2023/05/08 10:03:51;;;;;;;1.63;1.53;;;17.20;34.60;;;;;;5057220;28;20108;-73
2023/05/08 10:06:17;;;;;;;1.60;1.50;;;17.30;34.60;;;;;;5057141;28;20338;-71
2023/05/08 10:08:43;;;;;;;1.85;1.30;;;17.30;34.40;;;;;;5056764;28;20025;-72
2023/05/08 10:11:17;;;;;;;1.42;1.23;;;17.30;34.30;;;;;;5056665;28;20033;-72
2023/05/08 10:13:46;;;;;;;1.40;1.30;;;17.30;34.30;;;;;;5055414;28;20418;-71
2023/05/08 10:16:17;;;;;;;2.42;1.25;;;17.40;34.30;;;;;;5056708;28;20043;-72
2023/05/08 10:18:48;;;;;;;2.28;1.35;;;17.40;34.20;;;;;;5056779;28;20090;-72
2023/05/08 10:21:14;;;;;;;1.10;1.10;;;17.50;34.20;;;;;;5056682;28;20025;-72
2023/05/08 10:23:45;;;;;;;2.05;1.40;;;17.50;34.20;;;;;;5056522;28;20071;-72
2023/05/08 10:26:15;;;;;;;1.40;1.30;;;17.60;34.10;;;;;;5055167;28;20026;-72
2023/05/08 10:29:06;;;;;;;1.58;1.42;;;17.60;34.10;;;;;;5056267;28;20064;-72
2023/05/08 10:31:35;;;;;;;1.45;1.35;;;17.70;34.00;;;;;;5055089;28;20029;-72
2023/05/08 10:34:02;;;;;;;1.40;1.30;;;17.70;34.00;;;;;;5056095;28;20529;-72
2023/05/08 10:36:30;;;;;;;1.17;1.17;;;17.80;34.00;;;;;;5056188;28;20032;-72
2023/05/08 10:38:57;;;;;;;1.17;1.17;;;17.80;34.00;;;;;;5054860;28;20474;-72
2023/05/08 10:41:24;;;;;;;1.95;1.30;;;17.90;34.00;;;;;;5056112;28;20042;-72
2023/05/08 10:43:50;;;;;;;1.08;1.08;;;17.90;33.90;;;;;;5055136;28;20105;-72
2023/05/08 10:46:37;;;;;;;1.35;1.25;;;18.00;33.80;;;;;;5056082;28;20021;-72
2023/05/08 10:49:27;;;;;;;1.73;1.60;;;18.10;33.80;;;;;;5056073;28;20029;-72
2023/05/08 10:52:11;;;;;;;2.28;1.30;;;18.10;33.60;;;;;;5056319;28;20029;-72
2023/05/08 10:54:42;;;;;;;1.95;1.60;;;18.20;33.70;;;;;;5056093;28;20025;-72
2023/05/08 10:57:11;;;;;;;1.55;1.45;;;18.20;33.70;;;;;;5055926;28;20463;-71
2023/05/08 10:59:37;;;;;;;1.67;1.58;;;18.20;33.70;;;;;;5055868;28;20051;-72
2023/05/08 11:02:05;;;;;;;1.60;1.50;;;18.20;33.70;;;;;;5054415;28;20056;-73
2023/05/08 11:04:32;;;;;;;1.65;1.55;;;18.20;33.70;;;;;;5054983;28;20471;-72
2023/05/08 11:06:57;;;;;;;1.40;1.30;;;18.20;33.70;;;;;;5054445;28;20119;-73
2023/05/08 11:09:28;;;;;;;1.40;1.30;;;18.20;33.70;;;;;;5055615;28;20067;-72
2023/05/08 11:12:07;;;;;;;1.65;1.33;;;18.20;33.70;;;;;;5055430;28;20477;-73
2023/05/08 11:14:35;;;;;;;1.90;1.42;;;18.20;33.60;;;;;;5055393;28;20079;-72
2023/05/08 11:17:01;;;;;;;1.52;1.10;;;18.30;33.60;;;;;;5055852;28;20025;-72
2023/05/08 11:19:27;;;;;;;1.30;1.20;;;18.30;33.60;;;;;;5054823;28;20386;-72
2023/05/08 11:22:19;;;;;;;1.80;1.40;;;18.30;33.60;;;;;;5055416;28;20027;-73
2023/05/08 11:24:49;;;;;;;1.60;1.50;;;18.30;33.60;;;;;;5053890;28;20017;-73
2023/05/08 11:27:15;;;;;;;1.55;1.45;;;18.30;33.60;;;;;;5055239;28;20025;-73
2023/05/08 11:29:41;;;;;;;2.42;1.40;;;18.30;33.70;;;;;;5055313;28;20064;-72
2023/05/08 11:32:07;;;;;;;1.52;1.42;;;18.30;33.60;;;;;;5055120;28;20032;-72
2023/05/08 11:34:41;;;;;;;1.50;1.40;;;18.30;34.30;;;;;;5055236;28;20032;-72
2023/05/08 11:37:22;;;;;;;1.95;1.48;;;18.30;33.60;;;;;;5054863;28;20033;-72
2023/05/08 11:39:49;;;;;;;1.45;1.35;;;18.30;33.50;;;;;;5055266;28;20029;-72
2023/05/08 11:42:23;;;;;;;1.50;1.40;;;18.30;33.60;;;;;;5055055;28;20518;-72
2023/05/08 11:45:05;;;;;;;1.50;1.40;;;18.40;33.60;;;;;;5054914;28;20056;-71
2023/05/08 11:47:41;;;;;;;2.65;1.55;;;18.40;33.50;;;;;;5054001;28;20506;-71
2023/05/08 11:50:08;;;;;;;1.55;1.45;;;18.40;33.50;;;;;;5055075;28;20120;-72
2023/05/08 11:52:39;;;;;;;1.63;1.52;;;18.50;33.40;;;;;;5053575;28;20056;-73
2023/05/08 11:55:07;;;;;;;1.63;1.30;;;18.60;33.40;;;;;;5055001;28;20115;-72
2023/05/08 11:57:33;;;;;;;1.50;1.38;;;18.70;33.40;;;;;;5054871;28;20025;-73
2023/05/08 12:00:06;;;;;;;1.40;1.30;;;18.80;33.30;;;;;;5054527;28;20479;-72
2023/05/08 12:02:42;;;;;;;1.80;1.70;;;18.90;33.30;;;;;;5054338;28;20024;-73
2023/05/08 12:05:08;;;;;;;2.28;1.20;;;19.00;33.20;;;;;;5053430;28;20040;-72
2023/05/08 12:07:52;;;;;;;2.92;1.50;;;19.10;33.30;;;;;;5053382;28;20116;-73
2023/05/08 12:10:18;;;;;;;1.50;1.37;;;19.20;33.10;;;;;;5053284;28;20033;-72
2023/05/08 12:12:44;;;;;;;1.50;1.40;;;19.30;33.10;;;;;;5053950;28;20036;-73
2023/05/08 12:15:11;;;;;;;1.48;1.35;;;19.40;33.00;;;;;;5054185;28;20490;-73
2023/05/08 12:17:37;;;;;;;1.40;1.30;;;19.50;32.90;;;;;;5053167;28;20471;-72
2023/05/08 12:20:16;;;;;;;2.42;1.30;;;19.70;32.90;;;;;;5054416;28;20052;-73
2023/05/08 12:22:49;;;;;;;1.20;1.10;;;19.80;32.70;;;;;;5054298;28;20071;-72
2023/05/08 12:25:16;;;;;;;2.30;1.33;;;19.80;32.70;;;;;;5052619;28;20036;-73
2023/05/08 12:27:43;;;;;;;1.45;1.35;;;19.90;32.60;;;;;;5053984;28;20029;-73
2023/05/08 12:30:11;;;;;;;1.80;1.70;;;20.00;32.50;;;;;;5053885;28;20077;-72
2023/05/08 12:32:38;;;;;;;2.38;1.40;;;20.00;32.20;;;;;;5053851;28;20387;-73
2023/05/08 12:35:08;;;;;;;1.40;1.30;;;20.00;32.40;;;;;;5052580;28;20029;-73
2023/05/08 12:37:35;;;;;;;2.10;1.30;;;20.10;32.40;;;;;;5053941;28;20021;-72
2023/05/08 12:40:01;;;;;;;1.58;1.48;;;20.10;32.40;;;;;;5053624;28;20053;-72
2023/05/08 12:42:46;;;;;;;1.65;1.55;;;20.20;32.10;;;;;;5054115;28;20052;-72
2023/05/08 12:45:22;;;;;;;3.25;1.30;;;20.30;32.00;;;;;;5054101;28;20048;-72
2023/05/08 12:47:49;;;;;;;1.25;1.13;;;20.40;32.20;;;;;;5052448;28;20036;-72
2023/05/08 12:50:16;;;;;;;1.33;1.23;;;20.40;32.00;;;;;;5053730;28;20029;-73
2023/05/08 12:52:42;;;;;;;1.40;1.30;;;20.50;31.90;;;;;;5053370;28;20116;-73
2023/05/08 12:55:28;;;;;;;2.00;1.27;;;20.60;31.60;;;;;;5053708;28;20116;-73
2023/05/08 12:58:14;;;;;;;1.30;1.20;;;20.80;31.50;;;;;;5053854;28;20025;-72
2023/05/08 13:00:42;;;;;;;1.50;1.40;;;20.90;31.20;;;;;;5052231;28;20031;-72